createdAt,value
2022-11-01T00:02:09.899Z,8.57
2022-11-01T00:04:36.329Z,11.70
2022-11-01T00:07:02.825Z,7.72
2022-11-01T00:09:29.257Z,12.38
2022-11-01T00:11:55.675Z,10.77
2022-11-01T00:14:22.216Z,10.65
2022-11-01T00:16:49.062Z,8.40
2022-11-01T00:19:15.492Z,8.32
2022-11-01T00:21:41.894Z,8.85
2022-11-01T00:24:08.629Z,8.35
2022-11-01T00:26:35.699Z,6.38
2022-11-01T00:29:02.194Z,7.50
2022-11-01T00:31:29.566Z,9.75
2022-11-01T00:33:56.015Z,11.80
2022-11-01T00:36:22.401Z,7.70
2022-11-01T00:38:52.397Z,8.07
2022-11-01T00:41:20.763Z,10.18
2022-11-01T00:43:47.506Z,9.45
2022-11-01T00:46:14.093Z,8.70
2022-11-01T00:48:40.804Z,8.20
2022-11-01T00:51:07.221Z,9.27
2022-11-01T00:53:33.858Z,10.50
2022-11-01T00:56:05.193Z,10.95
2022-11-01T00:58:31.768Z,8.05
2022-11-01T01:00:58.383Z,13.45
2022-11-01T01:03:24.982Z,8.88
2022-11-01T01:05:52.980Z,8.70
2022-11-01T01:08:20.133Z,10.23
2022-11-01T01:10:46.818Z,9.98
2022-11-01T01:13:13.475Z,13.40
2022-11-01T01:15:41.291Z,10.40
2022-11-01T01:18:08.247Z,10.20
2022-11-01T01:20:35.298Z,9.88
2022-11-01T01:23:01.723Z,10.68
2022-11-01T01:25:28.126Z,11.60
2022-11-01T01:27:55.593Z,10.32
2022-11-01T01:30:21.994Z,13.35
2022-11-01T01:32:48.402Z,9.77
2022-11-01T01:35:14.833Z,8.98
2022-11-01T01:37:41.240Z,6.95
2022-11-01T01:40:08.769Z,10.65
2022-11-01T01:42:40.750Z,9.20
2022-11-01T01:45:29.267Z,12.70
2022-11-01T01:48:03.289Z,10.90
2022-11-01T01:50:46.042Z,9.57
2022-11-01T01:53:12.371Z,13.00
2022-11-01T01:55:53.376Z,9.90
2022-11-01T01:58:22.692Z,12.93
2022-11-01T02:00:50.117Z,13.15
2022-11-01T02:03:16.761Z,12.52
2022-11-01T02:05:54.797Z,9.48
2022-11-01T02:08:27.600Z,11.55
2022-11-01T02:10:56.289Z,10.80
2022-11-01T02:13:22.758Z,12.25
2022-11-01T02:16:21.494Z,9.43
2022-11-01T02:18:57.514Z,10.38
2022-11-01T02:21:42.299Z,9.23
2022-11-01T02:24:36.607Z,15.32
2022-11-01T02:27:14.144Z,8.52
2022-11-01T02:30:01.556Z,7.03
2022-11-01T02:32:35.610Z,7.28
2022-11-01T02:35:13.147Z,11.18
2022-11-01T02:37:49.773Z,8.60
2022-11-01T02:40:26.247Z,13.38
2022-11-01T02:45:30.514Z,11.07
2022-11-01T02:47:58.797Z,8.40
2022-11-01T02:50:36.154Z,14.63
2022-11-01T02:53:03.129Z,10.07
2022-11-01T02:55:30.365Z,11.48
2022-11-01T02:58:22.470Z,9.30
2022-11-01T03:00:49.130Z,13.48
2022-11-01T03:03:21.358Z,8.23
2022-11-01T03:06:00.049Z,9.48
2022-11-01T03:08:45.721Z,8.70
2022-11-01T03:11:20.397Z,10.70
2022-11-01T03:13:53.446Z,10.18
2022-11-01T03:16:36.045Z,7.82
2022-11-01T03:19:06.524Z,9.40
2022-11-01T03:21:41.341Z,9.32
2022-11-01T03:24:20.223Z,7.20
2022-11-01T03:26:54.821Z,8.38
2022-11-01T03:29:23.544Z,9.15
2022-11-01T03:31:52.481Z,9.52
2022-11-01T03:34:19.941Z,7.78
2022-11-01T03:36:53.057Z,7.55
2022-11-01T03:39:26.965Z,6.45
2022-11-01T03:41:58.510Z,7.50
2022-11-01T03:44:26.810Z,10.15
2022-11-01T03:46:53.352Z,8.80
2022-11-01T03:49:20.299Z,7.72
2022-11-01T03:51:46.726Z,11.30
2022-11-01T03:54:13.132Z,10.75
2022-11-01T03:56:40.664Z,8.07
2022-11-01T03:59:08.535Z,12.55
2022-11-01T04:01:35.276Z,7.47
2022-11-01T04:04:01.985Z,7.68
2022-11-01T04:06:28.770Z,10.18
2022-11-01T04:08:55.582Z,9.18
2022-11-01T04:11:22.014Z,9.68
2022-11-01T04:13:48.437Z,9.55
2022-11-01T04:16:33.520Z,8.23
2022-11-01T04:19:18.348Z,11.63
2022-11-01T04:21:44.905Z,13.35
2022-11-01T04:24:11.387Z,6.63
2022-11-01T04:26:38.069Z,9.85
2022-11-01T04:29:04.525Z,8.25
2022-11-01T04:31:34.249Z,8.18
2022-11-01T04:34:02.125Z,10.02
2022-11-01T04:36:28.573Z,12.35
2022-11-01T04:38:56.780Z,10.73
2022-11-01T04:41:25.116Z,8.43
2022-11-01T04:43:57.160Z,8.35
2022-11-01T04:46:23.766Z,9.55
2022-11-01T04:48:50.210Z,7.85
2022-11-01T04:51:16.883Z,11.23
2022-11-01T04:53:43.288Z,8.52
2022-11-01T04:56:13.665Z,7.32
2022-11-01T04:58:44.824Z,11.98
2022-11-01T05:01:13.277Z,7.43
2022-11-01T05:03:39.783Z,9.32
2022-11-01T05:06:06.546Z,7.18
2022-11-01T05:08:33.113Z,11.60
2022-11-01T05:10:59.656Z,5.75
2022-11-01T05:13:26.058Z,14.13
2022-11-01T05:16:06.428Z,7.93
2022-11-01T05:18:42.448Z,10.98
2022-11-01T05:21:08.843Z,8.43
2022-11-01T05:23:35.244Z,8.63
2022-11-01T05:26:01.637Z,11.27
2022-11-01T05:28:28.070Z,12.43
2022-11-01T05:30:54.470Z,9.35
2022-11-01T05:33:20.862Z,9.82
2022-11-01T05:35:47.302Z,15.02
2022-11-01T05:38:13.689Z,14.38
2022-11-01T05:40:40.078Z,11.10
2022-11-01T05:43:06.524Z,13.02
2022-11-01T05:45:32.950Z,10.65
2022-11-01T05:48:04.150Z,9.43
2022-11-01T05:50:31.115Z,13.32
2022-11-01T05:53:05.182Z,13.93
2022-11-01T05:55:31.625Z,10.18
2022-11-01T05:57:58.872Z,8.45
2022-11-01T06:00:25.250Z,8.70
2022-11-01T06:02:51.725Z,11.80
2022-11-01T06:05:18.152Z,11.48
2022-11-01T06:07:44.538Z,11.15
2022-11-01T06:10:10.938Z,7.75
2022-11-01T06:12:37.346Z,10.25
2022-11-01T06:15:04.037Z,9.55
2022-11-01T06:17:30.420Z,13.00
2022-11-01T06:19:57.131Z,9.90
2022-11-01T06:22:23.546Z,9.38
2022-11-01T06:24:49.989Z,12.75
2022-11-01T06:27:16.732Z,10.88
2022-11-01T06:29:43.140Z,7.00
2022-11-01T06:32:09.690Z,10.55
2022-11-01T06:34:37.700Z,9.13
2022-11-01T06:37:06.010Z,8.05
2022-11-01T06:39:32.457Z,10.13
2022-11-01T06:41:58.896Z,9.57
2022-11-01T06:44:25.297Z,10.93
2022-11-01T06:46:53.667Z,14.85
2022-11-01T06:49:21.844Z,10.52
2022-11-01T06:51:48.300Z,13.02
2022-11-01T06:54:17.786Z,11.60
2022-11-01T06:56:46.915Z,9.77
2022-11-01T06:59:13.608Z,15.23
2022-11-01T07:01:40.112Z,13.13
2022-11-01T07:04:06.621Z,19.10
2022-11-01T07:06:33.061Z,15.90
2022-11-01T07:09:00.594Z,21.17
2022-11-01T07:11:31.309Z,17.38
2022-11-01T07:13:59.468Z,18.60
2022-11-01T07:16:26.425Z,21.52
2022-11-01T07:18:53.011Z,12.13
2022-11-01T07:21:19.665Z,11.90
2022-11-01T07:23:46.093Z,13.88
2022-11-01T07:26:12.471Z,14.70
2022-11-01T07:28:39.558Z,21.98
2022-11-01T07:31:06.327Z,23.45
2022-11-01T07:33:32.929Z,16.23
2022-11-01T07:36:00.730Z,23.10
2022-11-01T07:38:27.245Z,16.90
2022-11-01T07:40:59.497Z,14.30
2022-11-01T07:43:25.934Z,10.20
2022-11-01T07:45:53.832Z,12.32
2022-11-01T07:48:20.597Z,12.68
2022-11-01T07:50:47.354Z,11.48
2022-11-01T07:53:16.126Z,13.93
2022-11-01T07:55:43.402Z,11.02
2022-11-01T07:58:10.827Z,10.27
2022-11-01T08:00:38.216Z,16.73
2022-11-01T08:03:07.457Z,9.82
2022-11-01T08:05:34.402Z,12.57
2022-11-01T08:08:02.287Z,11.93
2022-11-01T08:10:29.257Z,10.77
2022-11-01T08:13:04.573Z,12.45
2022-11-01T08:15:31.120Z,12.38
2022-11-01T08:17:59.458Z,14.15
2022-11-01T08:20:27.418Z,11.20
2022-11-01T08:22:54.724Z,11.73
2022-11-01T08:25:21.874Z,13.32
2022-11-01T08:27:48.698Z,12.60
2022-11-01T08:30:19.726Z,11.13
2022-11-01T08:32:46.682Z,13.50
2022-11-01T08:35:13.376Z,9.30
2022-11-01T08:37:53.219Z,10.80
2022-11-01T08:40:20.952Z,8.73
2022-11-01T08:42:50.733Z,8.60
2022-11-01T08:45:17.526Z,8.73
2022-11-01T08:47:44.867Z,8.57
2022-11-01T08:50:14.716Z,7.20
2022-11-01T08:52:41.872Z,6.78
2022-11-01T08:55:09.964Z,8.25
2022-11-01T08:57:36.612Z,6.70
2022-11-01T09:00:07.052Z,8.68
2022-11-01T09:02:34.205Z,11.43
2022-11-01T09:05:04.964Z,6.57
2022-11-01T09:07:31.374Z,8.50
2022-11-01T09:09:57.748Z,8.00
2022-11-01T09:12:24.917Z,8.02
2022-11-01T09:14:51.498Z,5.07
2022-11-01T09:17:18.507Z,5.43
2022-11-01T09:19:44.989Z,6.70
2022-11-01T09:22:11.542Z,6.15
2022-11-01T09:24:37.931Z,5.75
2022-11-01T09:27:05.224Z,4.60
2022-11-01T09:31:58.181Z,7.07
2022-11-01T09:34:24.664Z,4.18
2022-11-01T09:36:51.212Z,6.72
2022-11-01T09:39:21.942Z,7.43
2022-11-01T09:41:56.370Z,8.57
2022-11-01T09:44:37.373Z,6.95
2022-11-01T09:47:16.491Z,8.45
2022-11-01T09:49:47.294Z,3.47
2022-11-01T09:52:20.230Z,7.45
2022-11-01T09:54:47.661Z,6.78
2022-11-01T09:57:29.349Z,5.93
2022-11-01T10:00:13.775Z,8.68
2022-11-01T10:06:09.895Z,4.95
2022-11-01T10:09:06.511Z,4.45
2022-11-01T10:11:54.647Z,5.33
2022-11-01T10:14:55.498Z,6.53
2022-11-01T10:17:52.397Z,3.38
2022-11-01T10:20:34.305Z,3.10
2022-11-01T10:23:16.677Z,4.22
2022-11-01T10:25:52.973Z,7.28
2022-11-01T10:28:27.892Z,4.57
2022-11-01T10:31:01.557Z,7.50
2022-11-01T10:33:38.749Z,3.30
2022-11-01T10:36:12.978Z,7.40
2022-11-01T10:39:10.718Z,5.90
2022-11-01T10:41:44.904Z,7.50
2022-11-01T10:44:17.923Z,9.25
2022-11-01T10:46:48.747Z,5.20
2022-11-01T10:49:53.009Z,6.40
2022-11-01T10:52:28.723Z,6.65
2022-11-01T10:54:57.187Z,6.53
2022-11-01T10:57:37.861Z,7.20
2022-11-01T11:00:07.619Z,4.22
2022-11-01T11:02:39.434Z,5.00
2022-11-01T11:05:07.185Z,6.05
2022-11-01T11:07:33.708Z,6.72
2022-11-01T11:12:36.766Z,4.90
2022-11-01T11:15:16.074Z,5.10
2022-11-01T11:17:46.336Z,6.32
2022-11-01T11:20:16.350Z,5.47
2022-11-01T11:22:43.274Z,4.55
2022-11-01T11:25:18.988Z,5.85
2022-11-01T11:27:52.779Z,4.95
2022-11-01T11:30:34.223Z,6.25
2022-11-01T11:33:02.779Z,4.72
2022-11-01T11:35:32.746Z,8.55
2022-11-01T11:38:06.292Z,6.30
2022-11-01T11:40:39.239Z,8.15
2022-11-01T11:43:36.086Z,7.43
2022-11-01T11:46:07.161Z,9.40
2022-11-01T11:48:33.567Z,3.30
2022-11-01T11:51:03.194Z,5.47
2022-11-01T11:53:30.323Z,8.25
2022-11-01T11:55:59.028Z,5.65
2022-11-01T11:58:28.465Z,8.68
2022-11-01T12:01:19.128Z,9.68
2022-11-01T12:03:51.457Z,8.18
2022-11-01T12:06:21.925Z,6.55
2022-11-01T12:08:51.384Z,5.93
2022-11-01T12:11:18.665Z,5.18
2022-11-01T12:14:05.110Z,8.07
2022-11-01T12:16:40.886Z,4.70
2022-11-01T12:19:26.288Z,5.93
2022-11-01T12:22:10.651Z,6.07
2022-11-01T12:24:49.287Z,5.85
2022-11-01T12:27:22.948Z,4.65
2022-11-01T12:29:55.369Z,4.90
2022-11-01T12:32:27.862Z,6.28
2022-11-01T12:34:59.448Z,4.30
2022-11-01T12:37:55.505Z,6.70
2022-11-01T12:40:25.517Z,7.20
2022-11-01T12:42:58.507Z,10.50
2022-11-01T12:45:39.340Z,9.88
2022-11-01T12:48:11.638Z,6.82
2022-11-01T12:50:43.979Z,4.22
2022-11-01T12:53:20.858Z,7.18
2022-11-01T12:55:48.519Z,6.75
2022-11-01T12:58:18.666Z,9.30
2022-11-01T13:00:51.191Z,8.70
2022-11-01T13:03:39.106Z,7.90
2022-11-01T13:06:43.238Z,7.40
2022-11-01T13:09:43.766Z,10.18
2022-11-01T13:12:31.139Z,7.72
2022-11-01T13:15:25.787Z,8.63
2022-11-01T13:18:21.766Z,5.00
2022-11-01T13:20:56.659Z,6.22
2022-11-01T13:23:34.662Z,10.18
2022-11-01T13:26:10.940Z,4.35
2022-11-01T13:28:47.399Z,4.60
2022-11-01T13:34:36.629Z,7.95
2022-11-01T13:37:49.673Z,10.20
2022-11-01T13:40:56.935Z,6.07
2022-11-01T13:43:29.733Z,8.23
2022-11-01T13:46:50.248Z,6.32
2022-11-01T13:49:52.162Z,6.28
2022-11-01T13:52:24.291Z,7.35
2022-11-01T13:55:19.705Z,4.72
2022-11-01T13:57:47.323Z,6.70
2022-11-01T14:00:37.100Z,8.15
2022-11-01T14:03:25.458Z,5.53
2022-11-01T14:06:06.996Z,5.72
2022-11-01T14:08:47.008Z,8.88
2022-11-01T14:11:42.063Z,6.47
2022-11-01T14:14:32.460Z,5.13
2022-11-01T14:17:20.598Z,7.68
2022-11-01T14:19:47.582Z,6.95
2022-11-01T14:22:24.160Z,8.73
2022-11-01T14:24:57.893Z,8.57
2022-11-01T14:27:37.516Z,6.65
2022-11-01T14:30:15.345Z,3.30
2022-11-01T14:32:55.257Z,6.53
2022-11-01T14:35:27.685Z,5.90
2022-11-01T14:38:00.919Z,4.75
2022-11-01T14:40:37.690Z,5.93
2022-11-01T14:43:15.223Z,5.93
2022-11-01T14:45:48.611Z,6.15
2022-11-01T14:48:27.594Z,6.32
2022-11-01T14:51:11.343Z,4.97
2022-11-01T14:53:38.092Z,7.60
2022-11-01T14:56:35.795Z,5.35
2022-11-01T14:59:19.332Z,5.00
2022-11-01T15:01:49.112Z,6.43
2022-11-01T15:04:29.177Z,6.88
2022-11-01T15:06:57.461Z,7.78
2022-11-01T15:09:27.645Z,6.75
2022-11-01T15:12:03.046Z,8.15
2022-11-01T15:14:37.309Z,4.50
2022-11-01T15:17:04.211Z,5.80
2022-11-01T15:19:37.110Z,9.75
2022-11-01T15:22:05.989Z,7.57
2022-11-01T15:24:34.728Z,6.93
2022-11-01T15:27:07.351Z,9.65
2022-11-01T15:29:34.145Z,7.13
2022-11-01T15:32:03.581Z,6.00
2022-11-01T15:34:34.286Z,8.95
2022-11-01T15:37:18.485Z,5.35
2022-11-01T15:39:44.874Z,8.35
2022-11-01T15:42:24.704Z,6.63
2022-11-01T15:44:51.136Z,7.07
2022-11-01T15:47:24.062Z,8.02
2022-11-01T15:49:56.599Z,11.75
2022-11-01T15:52:26.344Z,7.40
2022-11-01T15:55:02.613Z,8.05
2022-11-01T15:57:42.406Z,5.97
2022-11-01T16:00:22.910Z,8.30
2022-11-01T16:03:21.296Z,7.18
2022-11-01T16:05:56.896Z,4.78
2022-11-01T16:08:32.372Z,6.25
2022-11-01T16:10:59.857Z,4.85
2022-11-01T16:13:26.636Z,4.63
2022-11-01T16:16:10.692Z,7.05
2022-11-01T16:18:39.704Z,5.13
2022-11-01T16:21:29.065Z,3.53
2022-11-01T16:24:03.960Z,8.30
2022-11-01T16:26:33.309Z,7.63
2022-11-01T16:28:59.691Z,11.20
2022-11-01T16:31:28.852Z,12.98
2022-11-01T16:33:59.321Z,15.40
2022-11-01T16:36:26.599Z,10.02
2022-11-01T16:38:53.825Z,7.53
2022-11-01T16:41:39.914Z,7.57
2022-11-01T16:44:15.974Z,9.23
2022-11-01T16:46:42.850Z,7.78
2022-11-01T16:49:18.074Z,7.28
2022-11-01T16:51:44.450Z,7.10
2022-11-01T16:54:10.932Z,7.35
2022-11-01T16:56:47.959Z,10.40
2022-11-01T16:59:45.538Z,7.95
2022-11-01T17:02:18.499Z,5.40
2022-11-01T17:04:48.363Z,6.85
2022-11-01T17:07:17.403Z,5.57
2022-11-01T17:09:44.872Z,5.25
2022-11-01T17:12:11.531Z,7.88
2022-11-01T17:14:41.975Z,7.63
2022-11-01T17:17:15.681Z,5.72
2022-11-01T17:19:45.972Z,6.22
2022-11-01T17:22:20.109Z,6.68
2022-11-01T17:24:47.109Z,5.90
2022-11-01T17:27:14.509Z,6.10
2022-11-01T17:29:41.534Z,4.15
2022-11-01T17:32:10.226Z,3.08
2022-11-01T17:34:39.127Z,5.43
2022-11-01T17:37:06.808Z,5.78
2022-11-01T17:39:33.398Z,4.47
2022-11-01T17:42:09.275Z,4.15
2022-11-01T17:44:35.890Z,3.55
2022-11-01T17:47:05.761Z,3.92
2022-11-01T17:49:32.263Z,6.85
2022-11-01T17:51:58.787Z,5.45
2022-11-01T17:56:52.491Z,7.00
2022-11-01T17:59:20.915Z,6.07
2022-11-01T18:01:47.800Z,5.72
2022-11-01T18:04:14.463Z,7.38
2022-11-01T18:06:50.478Z,4.57
2022-11-01T18:09:20.646Z,7.05
2022-11-01T18:11:53.599Z,9.40
2022-11-01T18:14:34.930Z,4.40
2022-11-01T18:17:08.892Z,6.22
2022-11-01T18:19:43.640Z,5.32
2022-11-01T18:22:28.889Z,8.70
2022-11-01T18:25:20.815Z,6.78
2022-11-01T18:27:47.294Z,7.25
2022-11-01T18:30:20.423Z,6.40
2022-11-01T18:32:46.763Z,5.15
2022-11-01T18:35:34.090Z,4.88
2022-11-01T18:38:41.412Z,8.65
2022-11-01T18:41:13.137Z,7.65
2022-11-01T18:43:39.911Z,4.68
2022-11-01T18:46:24.959Z,4.82
2022-11-01T18:48:59.938Z,6.03
2022-11-01T18:51:31.970Z,5.10
2022-11-01T18:54:19.682Z,4.97
2022-11-01T18:57:10.671Z,9.65
2022-11-01T18:59:39.149Z,6.32
2022-11-01T19:02:11.668Z,6.55
2022-11-01T19:04:42.729Z,8.10
2022-11-01T19:07:12.666Z,5.15
2022-11-01T19:09:49.899Z,6.25
2022-11-01T19:12:26.911Z,14.02
2022-11-01T19:15:28.461Z,5.55
2022-11-01T19:18:02.693Z,6.32
2022-11-01T19:20:54.919Z,5.65
2022-11-01T19:23:39.516Z,6.90
2022-11-01T19:26:39.073Z,5.60
2022-11-01T19:29:29.486Z,6.10
2022-11-01T19:32:03.787Z,10.35
2022-11-01T19:34:36.690Z,7.80
2022-11-01T19:37:08.346Z,9.60
2022-11-01T19:39:38.216Z,10.07
2022-11-01T19:42:27.638Z,9.18
2022-11-01T19:44:58.199Z,6.40
2022-11-01T19:47:58.337Z,7.22
2022-11-01T19:50:34.111Z,8.10
2022-11-01T19:53:37.944Z,10.23
2022-11-01T19:56:05.758Z,6.78
2022-11-01T19:58:42.530Z,9.77
2022-11-01T20:01:09.088Z,7.90
2022-11-01T20:03:57.218Z,7.80
2022-11-01T20:07:01.864Z,10.27
2022-11-01T20:09:30.829Z,6.78
2022-11-01T20:11:57.274Z,10.65
2022-11-01T20:14:23.710Z,8.05
2022-11-01T20:16:50.472Z,6.10
2022-11-01T20:19:17.836Z,8.07
2022-11-01T20:21:45.837Z,10.32
2022-11-01T20:24:12.909Z,5.28
2022-11-01T20:26:39.498Z,6.25
2022-11-01T20:29:05.935Z,5.95
2022-11-01T20:31:32.438Z,11.25
2022-11-01T20:34:00.161Z,6.20
2022-11-01T20:36:27.575Z,7.30
2022-11-01T20:38:54.072Z,8.50
2022-11-01T20:41:22.287Z,8.05
2022-11-01T20:43:48.673Z,8.70
2022-11-01T20:46:15.109Z,10.30
2022-11-01T20:48:41.585Z,10.60
2022-11-01T20:51:08.229Z,10.35
2022-11-01T20:53:34.618Z,11.70
2022-11-01T20:56:02.200Z,6.95
2022-11-01T20:58:28.605Z,7.95
2022-11-01T21:00:55.846Z,8.55
2022-11-01T21:03:24.384Z,7.72
2022-11-01T21:05:51.552Z,8.07
2022-11-01T21:08:34.268Z,6.47
2022-11-01T21:11:09.897Z,8.30
2022-11-01T21:13:45.629Z,7.80
2022-11-01T21:16:31.079Z,8.80
2022-11-01T21:19:02.088Z,8.02
2022-11-01T21:21:35.879Z,12.73
2022-11-01T21:24:20.658Z,11.90
2022-11-01T21:26:52.008Z,9.65
2022-11-01T21:29:27.650Z,15.63
2022-11-01T21:31:54.061Z,10.10
2022-11-01T21:34:25.968Z,11.90
2022-11-01T21:36:52.540Z,8.25
2022-11-01T21:39:22.818Z,7.97
2022-11-01T21:41:55.780Z,8.05
2022-11-01T21:44:30.268Z,5.97
2022-11-01T21:47:00.963Z,6.47
2022-11-01T21:49:30.351Z,7.50
2022-11-01T21:52:02.104Z,10.98
2022-11-01T21:54:31.316Z,8.00
2022-11-01T21:56:57.936Z,9.30
2022-11-01T21:59:25.101Z,8.85
2022-11-01T22:01:51.754Z,6.93
2022-11-01T22:04:22.229Z,8.93
2022-11-01T22:06:51.426Z,5.45
2022-11-01T22:09:18.267Z,5.53
2022-11-01T22:11:44.702Z,5.97
2022-11-01T22:14:12.690Z,9.35
2022-11-01T22:16:39.481Z,4.18
2022-11-01T22:19:06.552Z,5.40
2022-11-01T22:21:33.232Z,5.38
2022-11-01T22:23:59.942Z,7.43
2022-11-01T22:26:36.261Z,8.38
2022-11-01T22:29:02.651Z,6.68
2022-11-01T22:31:29.038Z,7.90
2022-11-01T22:33:56.586Z,6.78
2022-11-01T22:36:30.948Z,12.48
2022-11-01T22:39:32.941Z,5.20
2022-11-01T22:42:00.537Z,6.53
2022-11-01T22:44:32.113Z,6.10
2022-11-01T22:47:01.670Z,7.25
2022-11-01T22:49:34.515Z,6.60
2022-11-01T22:52:16.260Z,5.55
2022-11-01T22:54:56.523Z,6.95
2022-11-01T22:57:27.264Z,8.98
2022-11-01T22:59:55.426Z,5.47
2022-11-01T23:02:27.869Z,8.23
2022-11-01T23:05:19.017Z,7.97
2022-11-01T23:07:51.177Z,5.95
2022-11-01T23:10:32.906Z,6.32
2022-11-01T23:13:43.428Z,5.03
2022-11-01T23:16:33.655Z,6.00
2022-11-01T23:19:02.059Z,7.38
2022-11-01T23:21:28.654Z,12.18
2022-11-01T23:23:55.661Z,6.70
2022-11-01T23:26:23.645Z,6.15
2022-11-01T23:28:53.872Z,8.70
2022-11-01T23:31:20.928Z,5.25
2022-11-01T23:33:49.226Z,7.40
2022-11-01T23:36:31.282Z,6.95
2022-11-01T23:39:11.687Z,5.22
2022-11-01T23:41:41.160Z,8.77
2022-11-01T23:44:50.412Z,6.15
2022-11-01T23:47:22.427Z,10.30
2022-11-01T23:50:00.845Z,6.35
2022-11-01T23:52:30.205Z,9.95
2022-11-01T23:54:57.307Z,11.13
2022-11-01T23:57:23.864Z,6.97
2022-11-01T23:59:50.930Z,6.20
